Mar Bianco — ERLS — position and weather

sailwx.info

Track history (hours):
 
Tides and Currents Weather Stations Pressure Air Temp Water Temp Dewpoint Dewpoint Depression Visibility Wind Speed Wind Dir Waves Ship Positions

Mar Bianco

Last reported at 2017-Oct-04 07:14 UTC. Time now 2017-Oct-23 00:58 UTC.
Position N 43°40' E 028°50'.
Warning: this ship's position is 18 days out of date.

Length 106 m; draft 7.4 m.

Type: Cargo ship. MMSI: 214181219.

Date/timePositionNaut miles runAvg speedWind from/ knotsBaromVisibWave heightAir tempDewpointWater temp
2017-Oct-04 07:14N 43°40' E 028°50'2 9.6
2017-Oct-04 07:00N 43°42' E 028°49'5 9.6
2017-Oct-04 06:31N 43°47' E 028°49'510.0
2017-Oct-04 06:01N 43°52' E 028°48'5 9.5
2017-Oct-04 05:30N 43°57' E 028°47'5 9.1
2017-Oct-04 05:00N 44°01' E 028°45'5 9.1
2017-Oct-04 04:30N 44°05' E 028°43'4 7.6
2017-Oct-04 04:00N 44°08' E 028°40'1 2.2
2017-Oct-04 03:31N 44°09' E 028°39'0 0.0
2017-Oct-04 03:01N 44°09' E 028°39'0 0.0
2017-Oct-04 02:28N 44°09' E 028°39'0 0.0
2017-Oct-04 01:58N 44°09' E 028°39'0 0.0
2017-Oct-04 01:28N 44°09' E 028°39'0 0.0
2017-Oct-04 00:58N 44°09' E 028°39'0 0.0
2017-Oct-04 00:28N 44°09' E 028°39'0 0.0
2017-Oct-03 23:58N 44°09' E 028°39'0 0.0
2017-Oct-03 23:28N 44°09' E 028°39'0 0.0
2017-Oct-03 22:58N 44°09' E 028°39'0 0.0
2017-Oct-03 22:28N 44°09' E 028°39'0 0.0
2017-Oct-03 21:58N 44°09' E 028°39'0 0.0
2017-Oct-03 21:29N 44°09' E 028°39'0 0.0
2017-Oct-03 20:59N 44°09' E 028°39'0 0.0
2017-Oct-03 20:29N 44°09' E 028°39'0 0.0
2017-Oct-03 19:59N 44°09' E 028°39'0 0.0
2017-Oct-03 19:29N 44°09' E 028°39'0 0.0
2017-Oct-03 18:59N 44°09' E 028°39'0 0.0
2017-Oct-03 18:29N 44°09' E 028°39'0 0.0
2017-Oct-03 17:59N 44°09' E 028°39'0 0.0
2017-Oct-03 17:29N 44°09' E 028°39'0 0.0
2017-Oct-03 16:59N 44°09' E 028°39'0 0.0
2017-Oct-03 16:29N 44°09' E 028°39'0 0.0
2017-Oct-03 15:59N 44°09' E 028°39'0 0.0
2017-Oct-03 15:29N 44°09' E 028°39'0 0.0
2017-Oct-03 14:59N 44°09' E 028°39'0 0.0
2017-Oct-03 13:59N 44°09' E 028°39'0 0.0
2017-Oct-03 13:30N 44°09' E 028°39'0 0.0
2017-Oct-03 12:57N 44°09' E 028°39'0 0.0
2017-Oct-03 12:27N 44°09' E 028°39'0 0.0
2017-Oct-03 11:57N 44°09' E 028°39'0 0.0
2017-Oct-03 11:30N 44°09' E 028°39'0 0.0
2017-Oct-03 11:00N 44°09' E 028°39'0 0.0
2017-Oct-03 10:30N 44°09' E 028°39'0 0.0
2017-Oct-03 10:00N 44°09' E 028°39'0 0.0
2017-Oct-03 09:30N 44°09' E 028°39'0 0.0
2017-Oct-03 08:57N 44°09' E 028°39'0 0.0
2017-Oct-03 08:27N 44°09' E 028°39'0 0.0
2017-Oct-03 08:00N 44°09' E 028°39'0 0.0
2017-Oct-03 07:30N 44°09' E 028°39'0 0.0
2017-Oct-03 07:00N 44°09' E 028°39'0 0.0
2017-Oct-03 06:30N 44°09' E 028°39'0 0.0
2017-Oct-03 06:00N 44°09' E 028°39'0 0.0
2017-Oct-03 05:30N 44°09' E 028°39'0 0.0
2017-Oct-03 05:00N 44°09' E 028°39'0 0.0
2017-Oct-03 04:27N 44°09' E 028°39'0 0.0
2017-Oct-03 04:00N 44°09' E 028°39'0 0.0
2017-Oct-03 03:27N 44°09' E 028°39'0 0.0
2017-Oct-03 03:00N 44°09' E 028°39'0 0.0
2017-Oct-03 02:30N 44°09' E 028°39'0 0.0
2017-Oct-03 02:00N 44°09' E 028°39'0 0.0
2017-Oct-03 01:30N 44°09' E 028°39'0 0.0
2017-Oct-03 00:57N 44°09' E 028°39'0 0.0
2017-Oct-03 00:30N 44°09' E 028°39'0 0.0
2017-Oct-03 00:00N 44°09' E 028°39'0 0.0
2017-Oct-02 23:30N 44°09' E 028°39'0 0.0
2017-Oct-02 23:00N 44°09' E 028°39'0 0.0
2017-Oct-02 22:30N 44°09' E 028°39'0 0.0
2017-Oct-02 22:00N 44°09' E 028°39'0 0.0
2017-Oct-02 21:30N 44°09' E 028°39'0 0.0
2017-Oct-02 21:00N 44°09' E 028°39'0 0.0
2017-Oct-02 20:30N 44°09' E 028°39'0 0.0
2017-Oct-02 20:00N 44°09' E 028°39'0 0.0
2017-Oct-02 19:30N 44°09' E 028°39'0 0.0
2017-Oct-02 19:00N 44°09' E 028°39'0 0.0
2017-Oct-02 18:26N 44°09' E 028°39'0 0.0
2017-Oct-02 17:56N 44°09' E 028°39'0 0.0
2017-Oct-02 17:29N 44°09' E 028°39'0 0.0
2017-Oct-02 16:59N 44°09' E 028°39'0 0.0
2017-Oct-02 16:29N 44°09' E 028°39'0 0.0
2017-Oct-02 15:59N 44°09' E 028°39'0 0.0
2017-Oct-02 15:29N 44°09' E 028°39'0 0.0
2017-Oct-02 14:59N 44°09' E 028°39'0 0.0
2017-Oct-02 14:29N 44°09' E 028°39'0 0.0
2017-Oct-02 13:59N 44°09' E 028°39'0 0.0
2017-Oct-02 13:29N 44°09' E 028°39'0 0.0
2017-Oct-02 12:59N 44°09' E 028°39'0 0.0
2017-Oct-02 12:29N 44°09' E 028°39'0 0.0
2017-Oct-02 11:59N 44°09' E 028°39'0 0.0
2017-Oct-02 11:29N 44°09' E 028°39'0 0.0
2017-Oct-02 10:59N 44°09' E 028°39'0 0.0
2017-Oct-02 10:29N 44°09' E 028°39'0 0.0
2017-Oct-02 09:59N 44°09' E 028°39'0 0.0
2017-Oct-02 09:29N 44°09' E 028°39'0 0.0
2017-Oct-02 08:59N 44°09' E 028°39'0 0.0
2017-Oct-02 08:29N 44°09' E 028°39'0 0.0
2017-Oct-02 07:59N 44°09' E 028°39'0 0.0
2017-Oct-02 07:29N 44°09' E 028°39'0 0.0
2017-Oct-02 06:56N 44°09' E 028°39'0 0.0
2017-Oct-02 06:29N 44°09' E 028°39'0 0.0
2017-Oct-02 05:59N 44°09' E 028°39'0 0.0
2017-Oct-02 05:28N 44°09' E 028°39'0 0.0
2017-Oct-02 04:58N 44°09' E 028°39'0 0.0
2017-Oct-02 04:28N 44°09' E 028°39'0 0.0
2017-Oct-02 03:58N 44°09' E 028°39'0 0.0
2017-Oct-02 03:28N 44°09' E 028°39'0 0.0
2017-Oct-02 02:58N 44°09' E 028°39'0 0.0
2017-Oct-02 02:28N 44°09' E 028°39'0 0.0
2017-Oct-02 01:58N 44°09' E 028°39'0 0.0
2017-Oct-02 01:28N 44°09' E 028°39'0 0.0
2017-Oct-02 00:58N 44°09' E 028°39'0 0.0
2017-Oct-02 00:28N 44°09' E 028°39'0 0.0
2017-Oct-01 23:55N 44°09' E 028°39'0 0.0
2017-Oct-01 23:28N 44°09' E 028°39'0 0.0
2017-Oct-01 22:58N 44°09' E 028°39'0 0.0
2017-Oct-01 22:28N 44°09' E 028°39'0 0.0
2017-Oct-01 21:50N 44°09' E 028°39'0 0.0
2017-Oct-01 21:29N 44°09' E 028°39'0 0.0
2017-Oct-01 20:59N 44°09' E 028°39'0 0.0
2017-Oct-01 20:29N 44°09' E 028°39'0 0.0
2017-Oct-01 19:59N 44°09' E 028°39'0 0.0
2017-Oct-01 19:29N 44°09' E 028°39'0 0.0
2017-Oct-01 18:59N 44°09' E 028°39'0 0.0
2017-Oct-01 18:29N 44°09' E 028°39'0 0.0
2017-Oct-01 17:59N 44°09' E 028°39'0 0.0
2017-Oct-01 17:29N 44°09' E 028°39'0 0.0
2017-Oct-01 16:47N 44°09' E 028°39'0 0.0
2017-Oct-01 16:23N 44°09' E 028°39'0 0.0
2017-Oct-01 15:59N 44°09' E 028°39'0 0.0
2017-Oct-01 15:29N 44°09' E 028°39'0 0.0
2017-Oct-01 14:59N 44°09' E 028°39'0 0.0
2017-Oct-01 14:29N 44°09' E 028°39'0 0.0
2017-Oct-01 13:59N 44°09' E 028°39'0 0.0
2017-Oct-01 13:26N 44°09' E 028°39'0 0.0
2017-Oct-01 12:59N 44°09' E 028°39'0 0.0
2017-Oct-01 12:29N 44°09' E 028°39'0 0.0
2017-Oct-01 11:56N 44°09' E 028°39'0 0.0
2017-Oct-01 11:23N 44°09' E 028°39'0 0.0
2017-Oct-01 10:59N 44°09' E 028°39'0 0.0
2017-Oct-01 10:26N 44°09' E 028°39'0 0.0
2017-Oct-01 09:59N 44°09' E 028°39'0 0.0
2017-Oct-01 09:29N 44°09' E 028°39'0 0.0
2017-Oct-01 08:59N 44°09' E 028°39'0 0.0
2017-Oct-01 08:29N 44°09' E 028°39'0 0.0
2017-Oct-01 07:59N 44°09' E 028°39'0 0.0
2017-Oct-01 07:29N 44°09' E 028°39'0 0.0
2017-Oct-01 06:59N 44°09' E 028°39'0 0.0
2017-Oct-01 06:29N 44°09' E 028°39'0 0.0
2017-Oct-01 05:59N 44°09' E 028°39'0 0.0
2017-Oct-01 05:29N 44°09' E 028°39'0 0.0
2017-Oct-01 04:59N 44°09' E 028°39'0 0.0
2017-Oct-01 04:29N 44°09' E 028°39'0 0.0
2017-Oct-01 03:59N 44°09' E 028°39'0 0.0
2017-Oct-01 03:29N 44°09' E 028°39'0 0.0
2017-Oct-01 02:59N 44°09' E 028°39'3 0.1
2017-Sep-30 01:58N 44°06' E 028°39'0 0.0
2017-Sep-30 01:28N 44°06' E 028°39'0 0.0
2017-Sep-30 00:58N 44°06' E 028°39'0 0.0
2017-Sep-30 00:28N 44°06' E 028°39'0 0.1
2017-Sep-29 23:58N 44°06' E 028°39'0 0.0
2017-Sep-29 23:28N 44°06' E 028°39'0 0.0
2017-Sep-29 22:58N 44°06' E 028°39'0 0.0
2017-Sep-29 22:28N 44°06' E 028°39'0 0.0
2017-Sep-29 21:58N 44°06' E 028°39'0 0.0
2017-Sep-29 21:28N 44°06' E 028°39'0 0.0
2017-Sep-29 20:58N 44°06' E 028°39'0 0.0
2017-Sep-29 20:28N 44°06' E 028°39'0 0.0
2017-Sep-29 19:58N 44°06' E 028°39'0 0.0
2017-Sep-29 19:30N 44°06' E 028°39'0 0.0
2017-Sep-29 18:58N 44°06' E 028°39'0 0.0
2017-Sep-29 18:28N 44°06' E 028°39'0 0.0
2017-Sep-29 17:58N 44°06' E 028°39'0 0.0
2017-Sep-29 17:28N 44°06' E 028°39'0 0.0
2017-Sep-29 16:58N 44°06' E 028°39'0 0.0
2017-Sep-29 16:28N 44°06' E 028°39'0 0.0
2017-Sep-29 15:55N 44°06' E 028°39'0 0.1
2017-Sep-29 15:28N 44°06' E 028°39'0 0.0
2017-Sep-29 14:58N 44°06' E 028°39'0 0.0
2017-Sep-29 14:28N 44°06' E 028°39'0 0.0
2017-Sep-29 13:58N 44°06' E 028°39'0 0.0
2017-Sep-29 13:30N 44°06' E 028°39'0 0.0
2017-Sep-29 12:59N 44°06' E 028°39'0 0.0
2017-Sep-29 12:29N 44°06' E 028°39'0 0.0
2017-Sep-29 11:59N 44°06' E 028°39'0 0.0
2017-Sep-29 11:29N 44°06' E 028°39'0 0.0
2017-Sep-29 10:56N 44°06' E 028°39'0 0.0
2017-Sep-29 10:29N 44°06' E 028°39'0 0.0
2017-Sep-29 09:59N 44°06' E 028°39'0 0.0
2017-Sep-29 09:29N 44°06' E 028°39'0 0.0
2017-Sep-29 08:59N 44°06' E 028°39'0 0.0
2017-Sep-29 08:29N 44°06' E 028°39'0 0.0
2017-Sep-29 07:59N 44°06' E 028°39'0 0.0
2017-Sep-29 07:29N 44°06' E 028°39'0 0.0
2017-Sep-29 06:59N 44°06' E 028°39'0 0.0
2017-Sep-29 06:29N 44°06' E 028°39'0 0.0
2017-Sep-29 05:59N 44°06' E 028°39'0 0.0
2017-Sep-29 05:29N 44°06' E 028°39'0 0.0
2017-Sep-29 04:56N 44°06' E 028°39'0 0.0
2017-Sep-29 04:29N 44°06' E 028°39'0 0.0
2017-Sep-29 03:59N 44°06' E 028°39'0 0.0
2017-Sep-29 03:29N 44°06' E 028°39'0 0.0
2017-Sep-29 02:59N 44°06' E 028°39'0 0.0
2017-Sep-29 02:29N 44°06' E 028°39'0 0.0
2017-Sep-29 01:59N 44°06' E 028°39'0 0.0
2017-Sep-29 01:29N 44°06' E 028°39'0 0.0
2017-Sep-29 00:59N 44°06' E 028°39'0 0.0
2017-Sep-29 00:29N 44°06' E 028°39'0 0.0
2017-Sep-28 23:59N 44°06' E 028°39'0 0.0
2017-Sep-28 23:29N 44°06' E 028°39'0 0.0
2017-Sep-28 22:59N 44°06' E 028°39'0 0.0
2017-Sep-28 22:29N 44°06' E 028°39'0 0.0
2017-Sep-28 21:59N 44°06' E 028°39'0 0.0
2017-Sep-28 21:29N 44°06' E 028°39'0 0.0
2017-Sep-28 20:59N 44°06' E 028°39'0 0.0
2017-Sep-28 20:29N 44°06' E 028°39'0 0.0
2017-Sep-28 19:59N 44°06' E 028°39'0 0.0
2017-Sep-28 19:29N 44°06' E 028°39'0 0.0
2017-Sep-28 19:00N 44°06' E 028°39'0 0.0
2017-Sep-28 18:30N 44°06' E 028°39'0 0.0
2017-Sep-28 18:00N 44°06' E 028°39'0 0.0
2017-Sep-28 17:30N 44°06' E 028°39'0 0.0
2017-Sep-28 17:00N 44°06' E 028°39'0 0.0
2017-Sep-28 16:30N 44°06' E 028°39'0 0.0
2017-Sep-28 16:00N 44°06' E 028°39'0 0.0
2017-Sep-28 15:30N 44°06' E 028°39'0 0.0
2017-Sep-28 15:00N 44°06' E 028°39'0 0.0
2017-Sep-28 14:30N 44°06' E 028°39'0 0.0
2017-Sep-28 13:57N 44°06' E 028°39'0 0.0
2017-Sep-28 13:30N 44°06' E 028°39'0 0.0
2017-Sep-28 13:00N 44°06' E 028°39'0 0.0
2017-Sep-28 12:30N 44°06' E 028°39'0 0.0
2017-Sep-28 12:00N 44°06' E 028°39'0 0.0
2017-Sep-28 11:30N 44°06' E 028°39'0 0.0
2017-Sep-28 11:00N 44°06' E 028°39'0 0.0
2017-Sep-28 10:31N 44°06' E 028°39'0 0.0
2017-Sep-28 10:01N 44°06' E 028°39'0 0.0
2017-Sep-28 09:31N 44°06' E 028°39'0 0.0
2017-Sep-28 09:01N 44°06' E 028°39'0 0.0
2017-Sep-28 08:31N 44°06' E 028°39'0 0.0
2017-Sep-28 08:01N 44°06' E 028°39'0 0.0
2017-Sep-28 07:27N 44°06' E 028°39'0 0.0
2017-Sep-28 07:01N 44°06' E 028°39'0 0.0
2017-Sep-28 06:30N 44°06' E 028°39'0 0.0
2017-Sep-28 06:01N 44°06' E 028°39'0 0.0
2017-Sep-28 05:31N 44°06' E 028°39'0 0.0
2017-Sep-28 05:01N 44°06' E 028°39'0 0.0
2017-Sep-28 04:30N 44°06' E 028°39'0 0.0
2017-Sep-28 04:00N 44°06' E 028°39'0 0.0
2017-Sep-28 03:30N 44°06' E 028°39'0 0.0
2017-Sep-28 03:01N 44°06' E 028°39'0 0.0
2017-Sep-28 02:30N 44°06' E 028°39'0 0.0
2017-Sep-28 02:00N 44°06' E 028°39'0 0.0
2017-Sep-28 01:30N 44°06' E 028°39'0 0.0
2017-Sep-28 01:00N 44°06' E 028°39'0 0.0
2017-Sep-28 00:30N 44°06' E 028°39'0 0.0
2017-Sep-28 00:00N 44°06' E 028°39'0 0.0
2017-Sep-27 23:28N 44°06' E 028°39'0 0.0
2017-Sep-27 22:59N 44°06' E 028°39'0 0.0
2017-Sep-27 22:29N 44°06' E 028°39'0 0.0
2017-Sep-27 21:56N 44°06' E 028°39'0 0.0
2017-Sep-27 21:29N 44°06' E 028°39'0 0.0
2017-Sep-27 20:59N 44°06' E 028°39'0 0.0
2017-Sep-27 20:29N 44°06' E 028°39'0 0.0
2017-Sep-27 19:59N 44°06' E 028°39'0 0.0
2017-Sep-27 19:29N 44°06' E 028°39'0 0.0
2017-Sep-27 18:58N 44°06' E 028°39'0 0.0
2017-Sep-27 18:25N 44°06' E 028°39'0 0.0
2017-Sep-27 17:58N 44°06' E 028°39'0 0.0
2017-Sep-27 17:28N 44°06' E 028°39'0 0.0
2017-Sep-27 16:58N 44°06' E 028°39'0 0.0
2017-Sep-27 16:28N 44°06' E 028°39'0 0.0
2017-Sep-27 15:58N 44°06' E 028°39'0 0.0
2017-Sep-27 15:28N 44°06' E 028°39'0 0.0
2017-Sep-27 14:58N 44°06' E 028°39'0 0.0
2017-Sep-27 14:28N 44°06' E 028°39'0 0.0
2017-Sep-27 13:58N 44°06' E 028°39'0 0.0
2017-Sep-27 13:28N 44°06' E 028°39'0 0.0
2017-Sep-27 12:58N 44°06' E 028°39'0 0.0
2017-Sep-27 12:28N 44°06' E 028°39'0 0.0
2017-Sep-27 11:58N 44°06' E 028°39'0 0.0
2017-Sep-27 11:28N 44°06' E 028°39'0 0.0
2017-Sep-27 10:58N 44°06' E 028°39'0 0.0
2017-Sep-27 10:28N 44°06' E 028°39'0 0.0
2017-Sep-27 09:58N 44°06' E 028°39'0 0.0
2017-Sep-27 09:25N 44°06' E 028°39'0 0.0
2017-Sep-27 08:58N 44°06' E 028°39'0 0.0
2017-Sep-27 08:28N 44°06' E 028°39'0 0.0
2017-Sep-27 07:58N 44°06' E 028°39'0 0.0
2017-Sep-27 07:28N 44°06' E 028°39'0 0.0
2017-Sep-27 06:58N 44°06' E 028°39'0 0.0
2017-Sep-27 06:28N 44°06' E 028°39'0 0.0
2017-Sep-27 05:58N 44°06' E 028°39'0 0.0
2017-Sep-27 05:28N 44°06' E 028°39'0 0.0
2017-Sep-27 04:58N 44°06' E 028°39'0 0.0
2017-Sep-27 04:28N 44°06' E 028°39'0 0.0
2017-Sep-27 03:58N 44°06' E 028°39'0 0.0
2017-Sep-27 03:28N 44°06' E 028°39'0 0.0
2017-Sep-27 02:58N 44°06' E 028°39'0 0.0
2017-Sep-27 02:28N 44°06' E 028°39'0 0.0
2017-Sep-27 01:58N 44°06' E 028°39'0 0.0
2017-Sep-27 01:28N 44°06' E 028°39'0 0.0
2017-Sep-27 00:58N 44°06' E 028°39'0 0.0
2017-Sep-27 00:28N 44°06' E 028°39'0 0.0
2017-Sep-26 23:58N 44°06' E 028°39'0 0.0
2017-Sep-26 23:30N 44°06' E 028°39'0 0.0
2017-Sep-26 23:00N 44°06' E 028°39'0 0.0
2017-Sep-26 22:30N 44°06' E 028°39'0 0.0
2017-Sep-26 22:00N 44°06' E 028°39'0 0.0
2017-Sep-26 21:30N 44°06' E 028°39'0 0.0
2017-Sep-26 21:00N 44°06' E 028°39'0 0.0
2017-Sep-26 20:30N 44°06' E 028°39'0 0.0
2017-Sep-26 20:00N 44°06' E 028°39'0 0.0
2017-Sep-26 19:30N 44°06' E 028°39'0 0.0
2017-Sep-26 19:00N 44°06' E 028°39'0 0.0
2017-Sep-26 18:30N 44°06' E 028°39'0 0.0
2017-Sep-26 18:00N 44°06' E 028°39'0 0.0
2017-Sep-26 17:27N 44°06' E 028°39'0 0.0
2017-Sep-26 17:00N 44°06' E 028°39'0 0.0
2017-Sep-26 16:30N 44°06' E 028°39'0 0.0
2017-Sep-26 16:00N 44°06' E 028°39'0 0.0
2017-Sep-26 15:30N 44°06' E 028°39'0 0.0
2017-Sep-26 15:00N 44°06' E 028°39'0 0.0
2017-Sep-26 14:27N 44°06' E 028°39'0 0.0
2017-Sep-26 13:57N 44°06' E 028°39'0 0.0
2017-Sep-26 13:30N 44°06' E 028°39'0 0.0
2017-Sep-26 13:00N 44°06' E 028°39'0 0.0
2017-Sep-26 12:30N 44°06' E 028°39'0 0.0
2017-Sep-26 12:00N 44°06' E 028°39'0 0.0
2017-Sep-26 11:30N 44°06' E 028°39'0 0.0
2017-Sep-26 11:00N 44°06' E 028°39'0 0.0
2017-Sep-26 10:30N 44°06' E 028°39'0 0.0
2017-Sep-26 10:00N 44°06' E 028°39'0 0.0
2017-Sep-26 09:27N 44°06' E 028°39'0 0.0
2017-Sep-26 08:57N 44°06' E 028°39'0 0.0
2017-Sep-26 08:30N 44°06' E 028°39'0 0.0
2017-Sep-26 07:57N 44°06' E 028°39'0 0.0
2017-Sep-26 07:30N 44°06' E 028°39'0 0.0
2017-Sep-26 07:00N 44°06' E 028°39'0 0.0
2017-Sep-26 06:30N 44°06' E 028°39'0 0.0
2017-Sep-26 06:00N 44°06' E 028°39'0 0.0
2017-Sep-26 05:30N 44°06' E 028°39'0 0.1
2017-Sep-26 05:00N 44°06' E 028°39'0 0.0
2017-Sep-26 04:29N 44°06' E 028°39'0 0.0
2017-Sep-26 03:59N 44°06' E 028°39'0 0.0
2017-Sep-26 03:29N 44°06' E 028°39'0 0.0
2017-Sep-26 02:59N 44°06' E 028°39'0 0.0
2017-Sep-26 02:29N 44°06' E 028°39'0 0.0
2017-Sep-26 01:59N 44°06' E 028°39'0 0.0
2017-Sep-26 01:29N 44°06' E 028°39'0 0.0
2017-Sep-26 00:59N 44°06' E 028°39'0 0.0
2017-Sep-26 00:29N 44°06' E 028°39'0 0.0
2017-Sep-25 23:59N 44°06' E 028°39'0 0.0
2017-Sep-25 23:28N 44°06' E 028°39'0 0.0
2017-Sep-25 22:58N 44°06' E 028°39'0 0.0
2017-Sep-25 22:28N 44°06' E 028°39'0 0.0
2017-Sep-25 21:58N 44°06' E 028°39'0 0.0
2017-Sep-25 21:28N 44°06' E 028°39'0 0.0
2017-Sep-25 20:58N 44°06' E 028°39'0 0.0
2017-Sep-25 20:28N 44°06' E 028°39'0 0.0
2017-Sep-25 19:58N 44°06' E 028°39'0 0.0
2017-Sep-25 19:28N 44°06' E 028°39'0 0.0
2017-Sep-25 19:00N 44°06' E 028°39'0 0.0
2017-Sep-25 18:30N 44°06' E 028°39'0 0.0
2017-Sep-25 18:00N 44°06' E 028°39'0 0.0
2017-Sep-25 17:30N 44°06' E 028°39'0 0.0
2017-Sep-25 17:00N 44°06' E 028°39'0 0.0
2017-Sep-25 16:30N 44°06' E 028°39'0 0.0
2017-Sep-25 16:00N 44°06' E 028°39'0 0.0
2017-Sep-25 15:30N 44°06' E 028°39'0 0.0
2017-Sep-25 15:00N 44°06' E 028°39'0 0.0
2017-Sep-25 14:30N 44°06' E 028°39'0 0.0
2017-Sep-25 14:00N 44°06' E 028°39'0 0.0
2017-Sep-25 13:30N 44°06' E 028°39'0 0.0
2017-Sep-25 13:00N 44°06' E 028°39'0 0.0
2017-Sep-25 12:30N 44°06' E 028°39'0 0.0
2017-Sep-25 12:00N 44°06' E 028°39'0 0.0
2017-Sep-25 11:30N 44°06' E 028°39'0 0.0
2017-Sep-25 11:00N 44°06' E 028°39'0 0.0
2017-Sep-25 10:28N 44°06' E 028°39'0 0.0
2017-Sep-25 09:58N 44°06' E 028°39'0 0.0
2017-Sep-25 09:28N 44°06' E 028°39'0 0.0
2017-Sep-25 08:58N 44°06' E 028°39'0 0.0
2017-Sep-25 08:28N 44°06' E 028°39'0 0.0
2017-Sep-25 07:58N 44°06' E 028°39'0 0.0
2017-Sep-25 07:28N 44°06' E 028°39'0 0.0
2017-Sep-25 06:58N 44°06' E 028°39'0 0.0
2017-Sep-25 06:28N 44°06' E 028°39'0 0.0
2017-Sep-25 05:58N 44°06' E 028°39'0 0.0
2017-Sep-25 05:28N 44°06' E 028°39'0 0.0
2017-Sep-25 04:58N 44°06' E 028°39'0 0.0
2017-Sep-25 04:28N 44°06' E 028°39'0 0.0
2017-Sep-25 03:58N 44°06' E 028°39'0 0.0
2017-Sep-25 03:28N 44°06' E 028°39'0 0.0
2017-Sep-25 02:58N 44°06' E 028°39'0 0.0
2017-Sep-25 02:28N 44°06' E 028°39'0 0.0
2017-Sep-25 01:58N 44°06' E 028°39'0 0.0
2017-Sep-25 01:28N 44°06' E 028°39'0 0.0
2017-Sep-25 00:58N 44°06' E 028°39'0 0.0
2017-Sep-25 00:28N 44°06' E 028°39'0 0.0
2017-Sep-24 23:58N 44°06' E 028°39'0 0.0
2017-Sep-24 23:28N 44°06' E 028°39'0 0.0
2017-Sep-24 22:58N 44°06' E 028°39'0 0.0
2017-Sep-24 22:28N 44°06' E 028°39'0 0.0
2017-Sep-24 21:58N 44°06' E 028°39'0 0.0
2017-Sep-24 21:28N 44°06' E 028°39'0 0.0
2017-Sep-24 20:58N 44°06' E 028°39'0 0.0
2017-Sep-24 20:28N 44°06' E 028°39'0 0.0
2017-Sep-24 19:58N 44°06' E 028°39'0 0.0
2017-Sep-24 19:28N 44°06' E 028°39'0 0.0
2017-Sep-24 18:58N 44°06' E 028°39'0 0.0
2017-Sep-24 18:28N 44°06' E 028°39'0 0.0
2017-Sep-24 17:58N 44°06' E 028°39'0 0.0
2017-Sep-24 17:28N 44°06' E 028°39'0 0.0
2017-Sep-24 16:58N 44°06' E 028°39'0 0.0
2017-Sep-24 16:28N 44°06' E 028°39'0 0.0
2017-Sep-24 15:55N 44°06' E 028°39'0 0.0
2017-Sep-24 15:28N 44°06' E 028°39'0 0.0
2017-Sep-24 14:58N 44°06' E 028°39'0 0.0
2017-Sep-24 14:28N 44°06' E 028°39'0 0.0
2017-Sep-24 13:58N 44°06' E 028°39'0 0.0
2017-Sep-24 13:28N 44°06' E 028°39'0 0.0
2017-Sep-24 12:58N 44°06' E 028°39'0 0.0
2017-Sep-24 12:28N 44°06' E 028°39'0 0.0
2017-Sep-24 11:58N 44°06' E 028°39'0 0.0
2017-Sep-24 11:28N 44°06' E 028°39'0 0.0
2017-Sep-24 10:58N 44°06' E 028°39'0 0.0
2017-Sep-24 10:28N 44°06' E 028°39'0 0.0
2017-Sep-24 09:58N 44°06' E 028°39'0 0.0
2017-Sep-24 09:28N 44°06' E 028°39'0 0.0
2017-Sep-24 08:58N 44°06' E 028°39'0 0.0
2017-Sep-24 08:28N 44°06' E 028°39'0 0.0
2017-Sep-24 07:58N 44°06' E 028°39'0 0.0
2017-Sep-24 07:28N 44°06' E 028°39'  
Track history (hours):
 
Tides and Currents Weather Stations Pressure Air Temp Water Temp Dewpoint Dewpoint Depression Visibility Wind Speed Wind Dir Waves Ship Positions

Mar Bianco

Last reported at 2017-Oct-04 07:14 UTC. Time now 2017-Oct-23 00:58 UTC.
Position N 43°40' E 028°50'.
Warning: this ship's position is 18 days out of date.

Length 106 m; draft 7.4 m.

Type: Cargo ship. MMSI: 214181219.

Date/timePositionNaut miles runAvg speedWind from/ knotsBaromVisibWave heightAir tempDewpointWater temp
2017-Oct-04 07:14N 43°40' E 028°50'2 9.6
2017-Oct-04 07:00N 43°42' E 028°49'5 9.6
2017-Oct-04 06:31N 43°47' E 028°49'510.0
2017-Oct-04 06:01N 43°52' E 028°48'5 9.5
2017-Oct-04 05:30N 43°57' E 028°47'5 9.1
2017-Oct-04 05:00N 44°01' E 028°45'5 9.1
2017-Oct-04 04:30N 44°05' E 028°43'4 7.6
2017-Oct-04 04:00N 44°08' E 028°40'1 2.2
2017-Oct-04 03:31N 44°09' E 028°39'0 0.0
2017-Oct-04 03:01N 44°09' E 028°39'0 0.0
2017-Oct-04 02:28N 44°09' E 028°39'0 0.0
2017-Oct-04 01:58N 44°09' E 028°39'0 0.0
2017-Oct-04 01:28N 44°09' E 028°39'0 0.0
2017-Oct-04 00:58N 44°09' E 028°39'0 0.0
2017-Oct-04 00:28N 44°09' E 028°39'0 0.0
2017-Oct-03 23:58N 44°09' E 028°39'0 0.0
2017-Oct-03 23:28N 44°09' E 028°39'0 0.0
2017-Oct-03 22:58N 44°09' E 028°39'0 0.0
2017-Oct-03 22:28N 44°09' E 028°39'0 0.0
2017-Oct-03 21:58N 44°09' E 028°39'0 0.0
2017-Oct-03 21:29N 44°09' E 028°39'0 0.0
2017-Oct-03 20:59N 44°09' E 028°39'0 0.0
2017-Oct-03 20:29N 44°09' E 028°39'0 0.0
2017-Oct-03 19:59N 44°09' E 028°39'0 0.0
2017-Oct-03 19:29N 44°09' E 028°39'0 0.0
2017-Oct-03 18:59N 44°09' E 028°39'0 0.0
2017-Oct-03 18:29N 44°09' E 028°39'0 0.0
2017-Oct-03 17:59N 44°09' E 028°39'0 0.0
2017-Oct-03 17:29N 44°09' E 028°39'0 0.0
2017-Oct-03 16:59N 44°09' E 028°39'0 0.0
2017-Oct-03 16:29N 44°09' E 028°39'0 0.0
2017-Oct-03 15:59N 44°09' E 028°39'0 0.0
2017-Oct-03 15:29N 44°09' E 028°39'0 0.0
2017-Oct-03 14:59N 44°09' E 028°39'0 0.0
2017-Oct-03 13:59N 44°09' E 028°39'0 0.0
2017-Oct-03 13:30N 44°09' E 028°39'0 0.0
2017-Oct-03 12:57N 44°09' E 028°39'0 0.0
2017-Oct-03 12:27N 44°09' E 028°39'0 0.0
2017-Oct-03 11:57N 44°09' E 028°39'0 0.0
2017-Oct-03 11:30N 44°09' E 028°39'0 0.0
2017-Oct-03 11:00N 44°09' E 028°39'0 0.0
2017-Oct-03 10:30N 44°09' E 028°39'0 0.0
2017-Oct-03 10:00N 44°09' E 028°39'0 0.0
2017-Oct-03 09:30N 44°09' E 028°39'0 0.0
2017-Oct-03 08:57N 44°09' E 028°39'0 0.0
2017-Oct-03 08:27N 44°09' E 028°39'0 0.0
2017-Oct-03 08:00N 44°09' E 028°39'0 0.0
2017-Oct-03 07:30N 44°09' E 028°39'0 0.0
2017-Oct-03 07:00N 44°09' E 028°39'0 0.0
2017-Oct-03 06:30N 44°09' E 028°39'0 0.0
2017-Oct-03 06:00N 44°09' E 028°39'0 0.0
2017-Oct-03 05:30N 44°09' E 028°39'0 0.0
2017-Oct-03 05:00N 44°09' E 028°39'0 0.0
2017-Oct-03 04:27N 44°09' E 028°39'0 0.0
2017-Oct-03 04:00N 44°09' E 028°39'0 0.0
2017-Oct-03 03:27N 44°09' E 028°39'0 0.0
2017-Oct-03 03:00N 44°09' E 028°39'0 0.0
2017-Oct-03 02:30N 44°09' E 028°39'0 0.0
2017-Oct-03 02:00N 44°09' E 028°39'0 0.0
2017-Oct-03 01:30N 44°09' E 028°39'0 0.0
2017-Oct-03 00:57N 44°09' E 028°39'0 0.0
2017-Oct-03 00:30N 44°09' E 028°39'0 0.0
2017-Oct-03 00:00N 44°09' E 028°39'0 0.0
2017-Oct-02 23:30N 44°09' E 028°39'0 0.0
2017-Oct-02 23:00N 44°09' E 028°39'0 0.0
2017-Oct-02 22:30N 44°09' E 028°39'0 0.0
2017-Oct-02 22:00N 44°09' E 028°39'0 0.0
2017-Oct-02 21:30N 44°09' E 028°39'0 0.0
2017-Oct-02 21:00N 44°09' E 028°39'0 0.0
2017-Oct-02 20:30N 44°09' E 028°39'0 0.0
2017-Oct-02 20:00N 44°09' E 028°39'0 0.0
2017-Oct-02 19:30N 44°09' E 028°39'0 0.0
2017-Oct-02 19:00N 44°09' E 028°39'0 0.0
2017-Oct-02 18:26N 44°09' E 028°39'0 0.0
2017-Oct-02 17:56N 44°09' E 028°39'0 0.0
2017-Oct-02 17:29N 44°09' E 028°39'0 0.0
2017-Oct-02 16:59N 44°09' E 028°39'0 0.0
2017-Oct-02 16:29N 44°09' E 028°39'0 0.0
2017-Oct-02 15:59N 44°09' E 028°39'0 0.0
2017-Oct-02 15:29N 44°09' E 028°39'0 0.0
2017-Oct-02 14:59N 44°09' E 028°39'0 0.0
2017-Oct-02 14:29N 44°09' E 028°39'0 0.0
2017-Oct-02 13:59N 44°09' E 028°39'0 0.0
2017-Oct-02 13:29N 44°09' E 028°39'0 0.0
2017-Oct-02 12:59N 44°09' E 028°39'0 0.0
2017-Oct-02 12:29N 44°09' E 028°39'0 0.0
2017-Oct-02 11:59N 44°09' E 028°39'0 0.0
2017-Oct-02 11:29N 44°09' E 028°39'0 0.0
2017-Oct-02 10:59N 44°09' E 028°39'0 0.0
2017-Oct-02 10:29N 44°09' E 028°39'0 0.0
2017-Oct-02 09:59N 44°09' E 028°39'0 0.0
2017-Oct-02 09:29N 44°09' E 028°39'0 0.0
2017-Oct-02 08:59N 44°09' E 028°39'0 0.0
2017-Oct-02 08:29N 44°09' E 028°39'0 0.0
2017-Oct-02 07:59N 44°09' E 028°39'0 0.0
2017-Oct-02 07:29N 44°09' E 028°39'0 0.0
2017-Oct-02 06:56N 44°09' E 028°39'0 0.0
2017-Oct-02 06:29N 44°09' E 028°39'0 0.0
2017-Oct-02 05:59N 44°09' E 028°39'0 0.0
2017-Oct-02 05:28N 44°09' E 028°39'0 0.0
2017-Oct-02 04:58N 44°09' E 028°39'0 0.0
2017-Oct-02 04:28N 44°09' E 028°39'0 0.0
2017-Oct-02 03:58N 44°09' E 028°39'0 0.0
2017-Oct-02 03:28N 44°09' E 028°39'0 0.0
2017-Oct-02 02:58N 44°09' E 028°39'0 0.0
2017-Oct-02 02:28N 44°09' E 028°39'0 0.0
2017-Oct-02 01:58N 44°09' E 028°39'0 0.0
2017-Oct-02 01:28N 44°09' E 028°39'0 0.0
2017-Oct-02 00:58N 44°09' E 028°39'0 0.0
2017-Oct-02 00:28N 44°09' E 028°39'0 0.0
2017-Oct-01 23:55N 44°09' E 028°39'0 0.0
2017-Oct-01 23:28N 44°09' E 028°39'0 0.0
2017-Oct-01 22:58N 44°09' E 028°39'0 0.0
2017-Oct-01 22:28N 44°09' E 028°39'0 0.0
2017-Oct-01 21:50N 44°09' E 028°39'0 0.0
2017-Oct-01 21:29N 44°09' E 028°39'0 0.0
2017-Oct-01 20:59N 44°09' E 028°39'0 0.0
2017-Oct-01 20:29N 44°09' E 028°39'0 0.0
2017-Oct-01 19:59N 44°09' E 028°39'0 0.0
2017-Oct-01 19:29N 44°09' E 028°39'0 0.0
2017-Oct-01 18:59N 44°09' E 028°39'0 0.0
2017-Oct-01 18:29N 44°09' E 028°39'0 0.0
2017-Oct-01 17:59N 44°09' E 028°39'0 0.0
2017-Oct-01 17:29N 44°09' E 028°39'0 0.0
2017-Oct-01 16:47N 44°09' E 028°39'0 0.0
2017-Oct-01 16:23N 44°09' E 028°39'0 0.0
2017-Oct-01 15:59N 44°09' E 028°39'0 0.0
2017-Oct-01 15:29N 44°09' E 028°39'0 0.0
2017-Oct-01 14:59N 44°09' E 028°39'0 0.0
2017-Oct-01 14:29N 44°09' E 028°39'0 0.0
2017-Oct-01 13:59N 44°09' E 028°39'0 0.0
2017-Oct-01 13:26N 44°09' E 028°39'0 0.0
2017-Oct-01 12:59N 44°09' E 028°39'0 0.0
2017-Oct-01 12:29N 44°09' E 028°39'0 0.0
2017-Oct-01 11:56N 44°09' E 028°39'0 0.0
2017-Oct-01 11:23N 44°09' E 028°39'0 0.0
2017-Oct-01 10:59N 44°09' E 028°39'0 0.0
2017-Oct-01 10:26N 44°09' E 028°39'0 0.0
2017-Oct-01 09:59N 44°09' E 028°39'0 0.0
2017-Oct-01 09:29N 44°09' E 028°39'0 0.0
2017-Oct-01 08:59N 44°09' E 028°39'0 0.0
2017-Oct-01 08:29N 44°09' E 028°39'0 0.0
2017-Oct-01 07:59N 44°09' E 028°39'0 0.0
2017-Oct-01 07:29N 44°09' E 028°39'0 0.0
2017-Oct-01 06:59N 44°09' E 028°39'0 0.0
2017-Oct-01 06:29N 44°09' E 028°39'0 0.0
2017-Oct-01 05:59N 44°09' E 028°39'0 0.0
2017-Oct-01 05:29N 44°09' E 028°39'0 0.0
2017-Oct-01 04:59N 44°09' E 028°39'0 0.0
2017-Oct-01 04:29N 44°09' E 028°39'0 0.0
2017-Oct-01 03:59N 44°09' E 028°39'0 0.0
2017-Oct-01 03:29N 44°09' E 028°39'0 0.0
2017-Oct-01 02:59N 44°09' E 028°39'3 0.1
2017-Sep-30 01:58N 44°06' E 028°39'0 0.0
2017-Sep-30 01:28N 44°06' E 028°39'0 0.0
2017-Sep-30 00:58N 44°06' E 028°39'0 0.0
2017-Sep-30 00:28N 44°06' E 028°39'0 0.1
2017-Sep-29 23:58N 44°06' E 028°39'0 0.0
2017-Sep-29 23:28N 44°06' E 028°39'0 0.0
2017-Sep-29 22:58N 44°06' E 028°39'0 0.0
2017-Sep-29 22:28N 44°06' E 028°39'0 0.0
2017-Sep-29 21:58N 44°06' E 028°39'0 0.0
2017-Sep-29 21:28N 44°06' E 028°39'0 0.0
2017-Sep-29 20:58N 44°06' E 028°39'0 0.0
2017-Sep-29 20:28N 44°06' E 028°39'0 0.0
2017-Sep-29 19:58N 44°06' E 028°39'0 0.0
2017-Sep-29 19:30N 44°06' E 028°39'0 0.0
2017-Sep-29 18:58N 44°06' E 028°39'0 0.0
2017-Sep-29 18:28N 44°06' E 028°39'0 0.0
2017-Sep-29 17:58N 44°06' E 028°39'0 0.0
2017-Sep-29 17:28N 44°06' E 028°39'0 0.0
2017-Sep-29 16:58N 44°06' E 028°39'0 0.0
2017-Sep-29 16:28N 44°06' E 028°39'0 0.0
2017-Sep-29 15:55N 44°06' E 028°39'0 0.1
2017-Sep-29 15:28N 44°06' E 028°39'0 0.0
2017-Sep-29 14:58N 44°06' E 028°39'0 0.0
2017-Sep-29 14:28N 44°06' E 028°39'0 0.0
2017-Sep-29 13:58N 44°06' E 028°39'0 0.0
2017-Sep-29 13:30N 44°06' E 028°39'0 0.0
2017-Sep-29 12:59N 44°06' E 028°39'0 0.0
2017-Sep-29 12:29N 44°06' E 028°39'0 0.0
2017-Sep-29 11:59N 44°06' E 028°39'0 0.0
2017-Sep-29 11:29N 44°06' E 028°39'0 0.0
2017-Sep-29 10:56N 44°06' E 028°39'0 0.0
2017-Sep-29 10:29N 44°06' E 028°39'0 0.0
2017-Sep-29 09:59N 44°06' E 028°39'0 0.0
2017-Sep-29 09:29N 44°06' E 028°39'0 0.0
2017-Sep-29 08:59N 44°06' E 028°39'0 0.0
2017-Sep-29 08:29N 44°06' E 028°39'0 0.0
2017-Sep-29 07:59N 44°06' E 028°39'0 0.0
2017-Sep-29 07:29N 44°06' E 028°39'0 0.0
2017-Sep-29 06:59N 44°06' E 028°39'0 0.0
2017-Sep-29 06:29N 44°06' E 028°39'0 0.0
2017-Sep-29 05:59N 44°06' E 028°39'0 0.0
2017-Sep-29 05:29N 44°06' E 028°39'0 0.0
2017-Sep-29 04:56N 44°06' E 028°39'0 0.0
2017-Sep-29 04:29N 44°06' E 028°39'0 0.0
2017-Sep-29 03:59N 44°06' E 028°39'0 0.0
2017-Sep-29 03:29N 44°06' E 028°39'0 0.0
2017-Sep-29 02:59N 44°06' E 028°39'0 0.0
2017-Sep-29 02:29N 44°06' E 028°39'0 0.0
2017-Sep-29 01:59N 44°06' E 028°39'0 0.0
2017-Sep-29 01:29N 44°06' E 028°39'0 0.0
2017-Sep-29 00:59N 44°06' E 028°39'0 0.0
2017-Sep-29 00:29N 44°06' E 028°39'0 0.0
2017-Sep-28 23:59N 44°06' E 028°39'0 0.0
2017-Sep-28 23:29N 44°06' E 028°39'0 0.0
2017-Sep-28 22:59N 44°06' E 028°39'0 0.0
2017-Sep-28 22:29N 44°06' E 028°39'0 0.0
2017-Sep-28 21:59N 44°06' E 028°39'0 0.0
2017-Sep-28 21:29N 44°06' E 028°39'0 0.0
2017-Sep-28 20:59N 44°06' E 028°39'0 0.0
2017-Sep-28 20:29N 44°06' E 028°39'0 0.0
2017-Sep-28 19:59N 44°06' E 028°39'0 0.0
2017-Sep-28 19:29N 44°06' E 028°39'0 0.0
2017-Sep-28 19:00N 44°06' E 028°39'0 0.0
2017-Sep-28 18:30N 44°06' E 028°39'0 0.0
2017-Sep-28 18:00N 44°06' E 028°39'0 0.0
2017-Sep-28 17:30N 44°06' E 028°39'0 0.0
2017-Sep-28 17:00N 44°06' E 028°39'0 0.0
2017-Sep-28 16:30N 44°06' E 028°39'0 0.0
2017-Sep-28 16:00N 44°06' E 028°39'0 0.0
2017-Sep-28 15:30N 44°06' E 028°39'0 0.0
2017-Sep-28 15:00N 44°06' E 028°39'0 0.0
2017-Sep-28 14:30N 44°06' E 028°39'0 0.0
2017-Sep-28 13:57N 44°06' E 028°39'0 0.0
2017-Sep-28 13:30N 44°06' E 028°39'0 0.0
2017-Sep-28 13:00N 44°06' E 028°39'0 0.0
2017-Sep-28 12:30N 44°06' E 028°39'0 0.0
2017-Sep-28 12:00N 44°06' E 028°39'0 0.0
2017-Sep-28 11:30N 44°06' E 028°39'0 0.0
2017-Sep-28 11:00N 44°06' E 028°39'0 0.0
2017-Sep-28 10:31N 44°06' E 028°39'0 0.0
2017-Sep-28 10:01N 44°06' E 028°39'0 0.0
2017-Sep-28 09:31N 44°06' E 028°39'0 0.0
2017-Sep-28 09:01N 44°06' E 028°39'0 0.0
2017-Sep-28 08:31N 44°06' E 028°39'0 0.0
2017-Sep-28 08:01N 44°06' E 028°39'0 0.0
2017-Sep-28 07:27N 44°06' E 028°39'0 0.0
2017-Sep-28 07:01N 44°06' E 028°39'0 0.0
2017-Sep-28 06:30N 44°06' E 028°39'0 0.0
2017-Sep-28 06:01N 44°06' E 028°39'0 0.0
2017-Sep-28 05:31N 44°06' E 028°39'0 0.0
2017-Sep-28 05:01N 44°06' E 028°39'0 0.0
2017-Sep-28 04:30N 44°06' E 028°39'0 0.0
2017-Sep-28 04:00N 44°06' E 028°39'0 0.0
2017-Sep-28 03:30N 44°06' E 028°39'0 0.0
2017-Sep-28 03:01N 44°06' E 028°39'0 0.0
2017-Sep-28 02:30N 44°06' E 028°39'0 0.0
2017-Sep-28 02:00N 44°06' E 028°39'0 0.0
2017-Sep-28 01:30N 44°06' E 028°39'0 0.0
2017-Sep-28 01:00N 44°06' E 028°39'0 0.0
2017-Sep-28 00:30N 44°06' E 028°39'0 0.0
2017-Sep-28 00:00N 44°06' E 028°39'0 0.0
2017-Sep-27 23:28N 44°06' E 028°39'0 0.0
2017-Sep-27 22:59N 44°06' E 028°39'0 0.0
2017-Sep-27 22:29N 44°06' E 028°39'0 0.0
2017-Sep-27 21:56N 44°06' E 028°39'0 0.0
2017-Sep-27 21:29N 44°06' E 028°39'0 0.0
2017-Sep-27 20:59N 44°06' E 028°39'0 0.0
2017-Sep-27 20:29N 44°06' E 028°39'0 0.0
2017-Sep-27 19:59N 44°06' E 028°39'0 0.0
2017-Sep-27 19:29N 44°06' E 028°39'0 0.0
2017-Sep-27 18:58N 44°06' E 028°39'0 0.0
2017-Sep-27 18:25N 44°06' E 028°39'0 0.0
2017-Sep-27 17:58N 44°06' E 028°39'0 0.0
2017-Sep-27 17:28N 44°06' E 028°39'0 0.0
2017-Sep-27 16:58N 44°06' E 028°39'0 0.0
2017-Sep-27 16:28N 44°06' E 028°39'0 0.0
2017-Sep-27 15:58N 44°06' E 028°39'0 0.0
2017-Sep-27 15:28N 44°06' E 028°39'0 0.0
2017-Sep-27 14:58N 44°06' E 028°39'0 0.0
2017-Sep-27 14:28N 44°06' E 028°39'0 0.0
2017-Sep-27 13:58N 44°06' E 028°39'0 0.0
2017-Sep-27 13:28N 44°06' E 028°39'0 0.0
2017-Sep-27 12:58N 44°06' E 028°39'0 0.0
2017-Sep-27 12:28N 44°06' E 028°39'0 0.0
2017-Sep-27 11:58N 44°06' E 028°39'0 0.0
2017-Sep-27 11:28N 44°06' E 028°39'0 0.0
2017-Sep-27 10:58N 44°06' E 028°39'0 0.0
2017-Sep-27 10:28N 44°06' E 028°39'0 0.0
2017-Sep-27 09:58N 44°06' E 028°39'0 0.0
2017-Sep-27 09:25N 44°06' E 028°39'0 0.0
2017-Sep-27 08:58N 44°06' E 028°39'0 0.0
2017-Sep-27 08:28N 44°06' E 028°39'0 0.0
2017-Sep-27 07:58N 44°06' E 028°39'0 0.0
2017-Sep-27 07:28N 44°06' E 028°39'0 0.0
2017-Sep-27 06:58N 44°06' E 028°39'0 0.0
2017-Sep-27 06:28N 44°06' E 028°39'0 0.0
2017-Sep-27 05:58N 44°06' E 028°39'0 0.0
2017-Sep-27 05:28N 44°06' E 028°39'0 0.0
2017-Sep-27 04:58N 44°06' E 028°39'0 0.0
2017-Sep-27 04:28N 44°06' E 028°39'0 0.0
2017-Sep-27 03:58N 44°06' E 028°39'0 0.0
2017-Sep-27 03:28N 44°06' E 028°39'0 0.0
2017-Sep-27 02:58N 44°06' E 028°39'0 0.0
2017-Sep-27 02:28N 44°06' E 028°39'0 0.0
2017-Sep-27 01:58N 44°06' E 028°39'0 0.0
2017-Sep-27 01:28N 44°06' E 028°39'0 0.0
2017-Sep-27 00:58N 44°06' E 028°39'0 0.0
2017-Sep-27 00:28N 44°06' E 028°39'0 0.0
2017-Sep-26 23:58N 44°06' E 028°39'0 0.0
2017-Sep-26 23:30N 44°06' E 028°39'0 0.0
2017-Sep-26 23:00N 44°06' E 028°39'0 0.0
2017-Sep-26 22:30N 44°06' E 028°39'0 0.0
2017-Sep-26 22:00N 44°06' E 028°39'0 0.0
2017-Sep-26 21:30N 44°06' E 028°39'0 0.0
2017-Sep-26 21:00N 44°06' E 028°39'0 0.0
2017-Sep-26 20:30N 44°06' E 028°39'0 0.0
2017-Sep-26 20:00N 44°06' E 028°39'0 0.0
2017-Sep-26 19:30N 44°06' E 028°39'0 0.0
2017-Sep-26 19:00N 44°06' E 028°39'0 0.0
2017-Sep-26 18:30N 44°06' E 028°39'0 0.0
2017-Sep-26 18:00N 44°06' E 028°39'0 0.0
2017-Sep-26 17:27N 44°06' E 028°39'0 0.0
2017-Sep-26 17:00N 44°06' E 028°39'0 0.0
2017-Sep-26 16:30N 44°06' E 028°39'0 0.0
2017-Sep-26 16:00N 44°06' E 028°39'0 0.0
2017-Sep-26 15:30N 44°06' E 028°39'0 0.0
2017-Sep-26 15:00N 44°06' E 028°39'0 0.0
2017-Sep-26 14:27N 44°06' E 028°39'0 0.0
2017-Sep-26 13:57N 44°06' E 028°39'0 0.0
2017-Sep-26 13:30N 44°06' E 028°39'0 0.0
2017-Sep-26 13:00N 44°06' E 028°39'0 0.0
2017-Sep-26 12:30N 44°06' E 028°39'0 0.0
2017-Sep-26 12:00N 44°06' E 028°39'0 0.0
2017-Sep-26 11:30N 44°06' E 028°39'0 0.0
2017-Sep-26 11:00N 44°06' E 028°39'0 0.0
2017-Sep-26 10:30N 44°06' E 028°39'0 0.0
2017-Sep-26 10:00N 44°06' E 028°39'0 0.0
2017-Sep-26 09:27N 44°06' E 028°39'0 0.0
2017-Sep-26 08:57N 44°06' E 028°39'0 0.0
2017-Sep-26 08:30N 44°06' E 028°39'0 0.0
2017-Sep-26 07:57N 44°06' E 028°39'0 0.0
2017-Sep-26 07:30N 44°06' E 028°39'0 0.0
2017-Sep-26 07:00N 44°06' E 028°39'0 0.0
2017-Sep-26 06:30N 44°06' E 028°39'0 0.0
2017-Sep-26 06:00N 44°06' E 028°39'0 0.0
2017-Sep-26 05:30N 44°06' E 028°39'0 0.1
2017-Sep-26 05:00N 44°06' E 028°39'0 0.0
2017-Sep-26 04:29N 44°06' E 028°39'0 0.0
2017-Sep-26 03:59N 44°06' E 028°39'0 0.0
2017-Sep-26 03:29N 44°06' E 028°39'0 0.0
2017-Sep-26 02:59N 44°06' E 028°39'0 0.0
2017-Sep-26 02:29N 44°06' E 028°39'0 0.0
2017-Sep-26 01:59N 44°06' E 028°39'0 0.0
2017-Sep-26 01:29N 44°06' E 028°39'0 0.0
2017-Sep-26 00:59N 44°06' E 028°39'0 0.0
2017-Sep-26 00:29N 44°06' E 028°39'0 0.0
2017-Sep-25 23:59N 44°06' E 028°39'0 0.0
2017-Sep-25 23:28N 44°06' E 028°39'0 0.0
2017-Sep-25 22:58N 44°06' E 028°39'0 0.0
2017-Sep-25 22:28N 44°06' E 028°39'0 0.0
2017-Sep-25 21:58N 44°06' E 028°39'0 0.0
2017-Sep-25 21:28N 44°06' E 028°39'0 0.0
2017-Sep-25 20:58N 44°06' E 028°39'0 0.0
2017-Sep-25 20:28N 44°06' E 028°39'0 0.0
2017-Sep-25 19:58N 44°06' E 028°39'0 0.0
2017-Sep-25 19:28N 44°06' E 028°39'0 0.0
2017-Sep-25 19:00N 44°06' E 028°39'0 0.0
2017-Sep-25 18:30N 44°06' E 028°39'0 0.0
2017-Sep-25 18:00N 44°06' E 028°39'0 0.0
2017-Sep-25 17:30N 44°06' E 028°39'0 0.0
2017-Sep-25 17:00N 44°06' E 028°39'0 0.0
2017-Sep-25 16:30N 44°06' E 028°39'0 0.0
2017-Sep-25 16:00N 44°06' E 028°39'0 0.0
2017-Sep-25 15:30N 44°06' E 028°39'0 0.0
2017-Sep-25 15:00N 44°06' E 028°39'0 0.0
2017-Sep-25 14:30N 44°06' E 028°39'0 0.0
2017-Sep-25 14:00N 44°06' E 028°39'0 0.0
2017-Sep-25 13:30N 44°06' E 028°39'0 0.0
2017-Sep-25 13:00N 44°06' E 028°39'0 0.0
2017-Sep-25 12:30N 44°06' E 028°39'0 0.0
2017-Sep-25 12:00N 44°06' E 028°39'0 0.0
2017-Sep-25 11:30N 44°06' E 028°39'0 0.0
2017-Sep-25 11:00N 44°06' E 028°39'0 0.0
2017-Sep-25 10:28N 44°06' E 028°39'0 0.0
2017-Sep-25 09:58N 44°06' E 028°39'0 0.0
2017-Sep-25 09:28N 44°06' E 028°39'0 0.0
2017-Sep-25 08:58N 44°06' E 028°39'0 0.0
2017-Sep-25 08:28N 44°06' E 028°39'0 0.0
2017-Sep-25 07:58N 44°06' E 028°39'0 0.0
2017-Sep-25 07:28N 44°06' E 028°39'0 0.0
2017-Sep-25 06:58N 44°06' E 028°39'0 0.0
2017-Sep-25 06:28N 44°06' E 028°39'0 0.0
2017-Sep-25 05:58N 44°06' E 028°39'0 0.0
2017-Sep-25 05:28N 44°06' E 028°39'0 0.0
2017-Sep-25 04:58N 44°06' E 028°39'0 0.0
2017-Sep-25 04:28N 44°06' E 028°39'0 0.0
2017-Sep-25 03:58N 44°06' E 028°39'0 0.0
2017-Sep-25 03:28N 44°06' E 028°39'0 0.0
2017-Sep-25 02:58N 44°06' E 028°39'0 0.0
2017-Sep-25 02:28N 44°06' E 028°39'0 0.0
2017-Sep-25 01:58N 44°06' E 028°39'0 0.0
2017-Sep-25 01:28N 44°06' E 028°39'0 0.0
2017-Sep-25 00:58N 44°06' E 028°39'0 0.0
2017-Sep-25 00:28N 44°06' E 028°39'0 0.0
2017-Sep-24 23:58N 44°06' E 028°39'0 0.0
2017-Sep-24 23:28N 44°06' E 028°39'0 0.0
2017-Sep-24 22:58N 44°06' E 028°39'0 0.0
2017-Sep-24 22:28N 44°06' E 028°39'0 0.0
2017-Sep-24 21:58N 44°06' E 028°39'0 0.0
2017-Sep-24 21:28N 44°06' E 028°39'0 0.0
2017-Sep-24 20:58N 44°06' E 028°39'0 0.0
2017-Sep-24 20:28N 44°06' E 028°39'0 0.0
2017-Sep-24 19:58N 44°06' E 028°39'0 0.0
2017-Sep-24 19:28N 44°06' E 028°39'0 0.0
2017-Sep-24 18:58N 44°06' E 028°39'0 0.0
2017-Sep-24 18:28N 44°06' E 028°39'0 0.0
2017-Sep-24 17:58N 44°06' E 028°39'0 0.0
2017-Sep-24 17:28N 44°06' E 028°39'0 0.0
2017-Sep-24 16:58N 44°06' E 028°39'0 0.0
2017-Sep-24 16:28N 44°06' E 028°39'0 0.0
2017-Sep-24 15:55N 44°06' E 028°39'0 0.0
2017-Sep-24 15:28N 44°06' E 028°39'0 0.0
2017-Sep-24 14:58N 44°06' E 028°39'0 0.0
2017-Sep-24 14:28N 44°06' E 028°39'0 0.0
2017-Sep-24 13:58N 44°06' E 028°39'0 0.0
2017-Sep-24 13:28N 44°06' E 028°39'0 0.0
2017-Sep-24 12:58N 44°06' E 028°39'0 0.0
2017-Sep-24 12:28N 44°06' E 028°39'0 0.0
2017-Sep-24 11:58N 44°06' E 028°39'0 0.0
2017-Sep-24 11:28N 44°06' E 028°39'0 0.0
2017-Sep-24 10:58N 44°06' E 028°39'0 0.0
2017-Sep-24 10:28N 44°06' E 028°39'0 0.0
2017-Sep-24 09:58N 44°06' E 028°39'0 0.0
2017-Sep-24 09:28N 44°06' E 028°39'0 0.0
2017-Sep-24 08:58N 44°06' E 028°39'0 0.0
2017-Sep-24 08:28N 44°06' E 028°39'0 0.0
2017-Sep-24 07:58N 44°06' E 028°39'0 0.0
2017-Sep-24 07:28N 44°06' E 028°39'  

Dump ship's entire track history